Time;durP1;ratioP1;P1;durP2;ratioP2;P2;SDS_P1;SDS_P2;PMS_P1;PMS_P2;Temp;Humidity;BMP_temperature;BMP_pressure;BME280_temperature;BME280_humidity;BME280_pressure;Samples;Min_cycle;Max_cycle;Signal;HPM_P1;HPM_P2
2023/08/16 00:02:21;;;;;;;13.60;12.20;;;;;20.90;97183.00;;;;4996342;28;20221;-68
2023/08/16 00:05:10;;;;;;;14.73;11.40;;;;;20.60;97187.00;;;;5010280;28;20911;-68
2023/08/16 00:07:59;;;;;;;14.40;13.00;;;;;20.70;97182.00;;;;5009821;28;20207;-68
2023/08/16 00:10:50;;;;;;;12.97;11.63;;;;;20.70;97181.00;;;;4999934;28;20237;-68
2023/08/16 00:13:39;;;;;;;13.47;11.90;;;;;20.50;97184.00;;;;5009350;28;20600;-68
2023/08/16 00:16:28;;;;;;;13.30;12.00;;;;;20.30;97185.00;;;;5002320;28;20206;-68
2023/08/16 00:19:18;;;;;;;15.63;12.30;;;;;20.20;97179.00;;;;5009744;28;20206;-68
2023/08/16 00:22:08;;;;;;;13.13;11.93;;;;;19.60;97172.00;;;;5008788;28;20202;-70
2023/08/16 00:24:57;;;;;;;13.83;12.47;;;;;19.50;97178.00;;;;5007711;28;20692;-68
2023/08/16 00:27:46;;;;;;;14.53;12.87;;;;;19.90;97170.00;;;;5012650;28;20202;-69
2023/08/16 00:30:35;;;;;;;14.83;13.43;;;;;20.00;97174.00;;;;5013303;28;20225;-68
2023/08/16 00:33:24;;;;;;;14.60;13.10;;;;;20.20;97172.00;;;;4999520;28;20234;-69
2023/08/16 00:36:14;;;;;;;14.20;12.77;;;;;20.40;97182.00;;;;5005270;28;20210;-68
2023/08/16 00:39:04;;;;;;;13.47;11.90;;;;;20.50;97177.00;;;;5010271;28;20225;-69
2023/08/16 00:41:53;;;;;;;14.67;13.13;;;;;20.50;97176.00;;;;5009188;28;20217;-68
2023/08/16 00:44:42;;;;;;;17.57;14.10;;;;;20.30;97181.00;;;;5011736;28;20213;-69
2023/08/16 00:47:31;;;;;;;14.70;13.40;;;;;20.30;97171.00;;;;5008549;28;20569;-69
2023/08/16 00:50:23;;;;;;;16.77;13.37;;;;;19.90;97162.00;;;;5004910;28;20226;-68
2023/08/16 00:53:17;;;;;;;12.57;11.40;;;;;19.60;97160.00;;;;5003812;28;20717;-70
2023/08/16 00:56:07;;;;;;;13.43;12.03;;;;;19.70;97154.00;;;;5006868;28;20206;-69
2023/08/16 00:58:56;;;;;;;14.33;12.10;;;;;19.90;97151.00;;;;5005741;28;20210;-69
2023/08/16 01:01:45;;;;;;;15.07;12.17;;;;;19.90;97151.00;;;;5006298;28;20213;-68
2023/08/16 01:04:34;;;;;;;14.63;13.03;;;;;19.60;97150.00;;;;5005266;28;20674;-69
2023/08/16 01:07:23;;;;;;;16.83;15.13;;;;;19.70;97145.00;;;;5010535;28;20210;-69
2023/08/16 01:10:13;;;;;;;15.23;13.17;;;;;19.80;97150.00;;;;5011003;28;20234;-69
2023/08/16 01:13:09;;;;;;;18.37;13.23;;;;;20.30;97145.00;;;;5004444;28;20222;-70
2023/08/16 01:15:59;;;;;;;14.13;12.77;;;;;20.50;97143.00;;;;5001355;28;20202;-70
2023/08/16 01:18:48;;;;;;;13.97;12.53;;;;;20.70;97135.00;;;;5011945;28;20678;-70
2023/08/16 01:21:44;;;;;;;14.60;12.80;;;;;20.70;97133.00;;;;5009659;28;20210;-69
2023/08/16 01:24:39;;;;;;;13.90;11.97;;;;;20.30;97131.00;;;;5005546;28;20233;-69
2023/08/16 01:27:29;;;;;;;15.90;11.67;;;;;20.10;97134.00;;;;5010944;28;20209;-70
2023/08/16 01:30:20;;;;;;;16.50;13.57;;;;;20.00;97128.00;;;;5009822;28;20233;-70
2023/08/16 01:33:09;;;;;;;13.53;12.20;;;;;20.20;97122.00;;;;5008030;28;20229;-70
2023/08/16 01:35:59;;;;;;;15.77;13.40;;;;;20.40;97129.00;;;;5001399;28;20209;-69
2023/08/16 01:38:48;;;;;;;15.63;13.30;;;;;20.10;97124.00;;;;5005006;28;20207;-70
2023/08/16 01:41:40;;;;;;;16.30;13.17;;;;;20.20;97121.00;;;;5008298;28;20211;-70
2023/08/16 01:44:31;;;;;;;13.10;11.77;;;;;20.40;97118.00;;;;5009232;28;20198;-69
2023/08/16 01:47:20;;;;;;;17.83;13.00;;;;;20.50;97118.00;;;;5009703;28;20202;-69
2023/08/16 01:50:10;;;;;;;14.13;12.73;;;;;20.10;97110.00;;;;5006945;28;20210;-69
2023/08/16 01:52:59;;;;;;;17.73;13.00;;;;;19.80;97100.00;;;;4998898;28;20229;-69
2023/08/16 01:55:48;;;;;;;14.33;12.33;;;;;19.90;97116.00;;;;5003960;28;20574;-69
2023/08/16 01:58:37;;;;;;;13.37;12.07;;;;;20.10;97114.00;;;;5001877;28;20198;-69
2023/08/16 02:01:27;;;;;;;13.73;12.47;;;;;19.70;97118.00;;;;5000645;28;20202;-70
2023/08/16 02:04:16;;;;;;;17.40;13.63;;;;;20.10;97122.00;;;;5008725;28;20229;-69
2023/08/16 02:07:05;;;;;;;16.67;14.97;;;;;20.40;97133.00;;;;5009669;28;20209;-69
2023/08/16 02:09:54;;;;;;;13.13;11.93;;;;;20.50;97124.00;;;;5009450;28;20206;-69
2023/08/16 02:12:43;;;;;;;17.33;14.63;;;;;20.60;97121.00;;;;5008674;28;20230;-69
2023/08/16 02:15:32;;;;;;;18.40;13.60;;;;;20.50;97121.00;;;;5004696;28;20213;-69
2023/08/16 02:18:23;;;;;;;14.27;12.60;;;;;20.20;97123.00;;;;4995136;28;20211;-69
2023/08/16 02:21:12;;;;;;;13.60;12.40;;;;;19.90;97121.00;;;;4994151;28;20685;-69
2023/08/16 02:24:01;;;;;;;17.33;13.17;;;;;19.20;97108.00;;;;5002653;28;20218;-69
2023/08/16 02:26:52;;;;;;;13.50;12.10;;;;;19.30;97109.00;;;;5008558;28;20210;-70
2023/08/16 02:29:41;;;;;;;15.07;12.27;;;;;19.60;97116.00;;;;5009858;28;20217;-69
2023/08/16 02:35:03;;;;;;;18.13;14.80;;;;;20.10;97116.00;;;;5022910;28;20291;-66
2023/08/16 02:37:53;;;;;;;14.30;12.80;;;;;20.10;97113.00;;;;5023656;28;20216;-68
2023/08/16 02:40:42;;;;;;;13.27;11.97;;;;;20.20;97112.00;;;;5021823;28;20201;-67
2023/08/16 02:43:31;;;;;;;15.83;13.70;;;;;19.60;97110.00;;;;5027452;28;20231;-67
2023/08/16 02:46:20;;;;;;;15.00;13.47;;;;;19.90;97117.00;;;;5028018;28;20203;-67
2023/08/16 02:49:09;;;;;;;14.97;13.53;;;;;20.10;97108.00;;;;5027507;28;20575;-68
2023/08/16 02:51:59;;;;;;;16.20;13.97;;;;;20.30;97104.00;;;;5027477;28;20617;-68
2023/08/16 02:54:48;;;;;;;14.73;13.20;;;;;20.10;97096.00;;;;5026170;28;20233;-68
2023/08/16 02:57:37;;;;;;;14.93;13.27;;;;;20.00;97097.00;;;;5021586;28;20209;-68
2023/08/16 03:00:26;;;;;;;15.13;13.63;;;;;20.50;97092.00;;;;5027192;28;20214;-68
2023/08/16 03:03:15;;;;;;;17.10;14.73;;;;;20.60;97093.00;;;;5025431;28;20228;-68
2023/08/16 03:06:04;;;;;;;15.10;13.37;;;;;20.70;97089.00;;;;5027309;28;20201;-69
2023/08/16 03:08:55;;;;;;;14.70;13.13;;;;;20.30;97093.00;;;;5028051;28;20208;-68
2023/08/16 03:11:44;;;;;;;14.63;13.33;;;;;20.40;97090.00;;;;5025961;28;20596;-68
2023/08/16 03:14:33;;;;;;;16.33;13.37;;;;;20.00;97096.00;;;;5027931;28;20224;-69
2023/08/16 03:17:22;;;;;;;13.87;12.53;;;;;19.80;97092.00;;;;5027200;28;20216;-69
2023/08/16 03:20:12;;;;;;;13.53;12.13;;;;;19.70;97091.00;;;;5024934;28;20923;-68
2023/08/16 03:23:01;;;;;;;14.70;13.20;;;;;19.80;97083.00;;;;5027649;28;20228;-67
2023/08/16 03:25:52;;;;;;;17.30;13.97;;;;;20.20;97096.00;;;;5024167;28;20212;-68
2023/08/16 03:28:41;;;;;;;18.13;13.77;;;;;20.50;97096.00;;;;5021231;28;20208;-68
2023/08/16 03:31:30;;;;;;;14.87;12.80;;;;;20.60;97101.00;;;;5026547;28;20221;-68
2023/08/16 03:34:19;;;;;;;16.57;13.77;;;;;20.30;97102.00;;;;5026464;28;20229;-68
2023/08/16 03:37:08;;;;;;;14.87;13.13;;;;;19.80;97100.00;;;;5027675;28;20205;-69
2023/08/16 03:39:57;;;;;;;15.70;14.00;;;;;19.80;97097.00;;;;5023040;28;20217;-67
2023/08/16 03:42:47;;;;;;;14.60;13.10;;;;;20.20;97114.00;;;;5020497;28;20217;-68
2023/08/16 03:45:38;;;;;;;15.60;13.77;;;;;19.80;97121.00;;;;5013773;28;20692;-68
2023/08/16 03:48:27;;;;;;;16.20;14.57;;;;;19.60;97123.00;;;;5026807;28;20580;-68
2023/08/16 03:51:16;;;;;;;14.90;13.37;;;;;19.70;97124.00;;;;5025155;28;20201;-68
2023/08/16 03:54:05;;;;;;;15.63;14.07;;;;;20.00;97121.00;;;;5025288;28;20203;-68
2023/08/16 03:56:56;;;;;;;16.43;14.37;;;;;19.90;97127.00;;;;5025936;28;20204;-68
2023/08/16 03:59:46;;;;;;;14.60;13.10;;;;;19.70;97125.00;;;;5028282;28;20197;-68
2023/08/16 04:02:46;;;;;;;15.03;13.63;;;;;19.20;97118.00;;;;5030830;28;20687;-67
2023/08/16 04:05:40;;;;;;;15.43;13.77;;;;;19.40;97114.00;;;;5025599;28;20284;-68
2023/08/16 04:08:29;;;;;;;15.70;14.20;;;;;19.70;97113.00;;;;5030292;28;21643;-68
2023/08/16 04:11:18;;;;;;;16.37;14.73;;;;;20.00;97115.00;;;;5031076;28;20205;-68
2023/08/16 04:14:07;;;;;;;16.03;14.27;;;;;20.00;97118.00;;;;5031570;28;20229;-68
2023/08/16 04:16:57;;;;;;;15.83;14.20;;;;;19.90;97121.00;;;;5031207;28;20201;-67
2023/08/16 04:19:46;;;;;;;15.90;14.17;;;;;20.40;97133.00;;;;5031756;28;20220;-67
2023/08/16 04:22:35;;;;;;;15.50;14.13;;;;;20.50;97126.00;;;;5029456;28;20197;-67
2023/08/16 04:25:25;;;;;;;15.53;13.97;;;;;20.20;97128.00;;;;5031189;28;20209;-67
2023/08/16 04:28:14;;;;;;;16.23;14.20;;;;;20.00;97128.00;;;;5030294;28;20205;-68
2023/08/16 04:31:04;;;;;;;17.57;15.47;;;;;19.60;97125.00;;;;5030080;28;20201;-70
2023/08/16 04:33:54;;;;;;;19.87;14.13;;;;;19.60;97135.00;;;;5024840;28;20709;-67
2023/08/16 04:36:43;;;;;;;15.57;14.03;;;;;19.60;97128.00;;;;5031262;28;20205;-68
2023/08/16 04:39:32;;;;;;;18.13;13.93;;;;;19.70;97136.00;;;;5030841;28;20238;-69
2023/08/16 04:42:21;;;;;;;15.10;13.50;;;;;19.80;97136.00;;;;5031174;28;20201;-68
2023/08/16 04:45:11;;;;;;;17.40;14.00;;;;;20.10;97142.00;;;;5030683;28;20205;-68
2023/08/16 04:48:00;;;;;;;16.33;14.63;;;;;20.10;97150.00;;;;5030955;28;20206;-68
2023/08/16 04:50:50;;;;;;;15.70;14.27;;;;;20.00;97134.00;;;;5025613;28;20279;-68
2023/08/16 04:53:39;;;;;;;14.60;13.10;;;;;20.10;97140.00;;;;5030655;28;20244;-69
2023/08/16 04:56:28;;;;;;;16.30;14.60;;;;;20.10;97142.00;;;;5027774;28;20204;-70
2023/08/16 04:59:17;;;;;;;15.13;13.53;;;;;20.50;97137.00;;;;5031230;28;20793;-69
2023/08/16 05:02:07;;;;;;;15.80;14.23;;;;;20.60;97138.00;;;;5020068;28;20574;-69
2023/08/16 05:04:56;;;;;;;15.70;14.10;;;;;20.90;97144.00;;;;5024825;28;20209;-68
2023/08/16 05:07:46;;;;;;;15.47;13.53;;;;;20.80;97145.00;;;;5032166;28;20733;-68
2023/08/16 05:10:35;;;;;;;20.03;14.67;;;;;20.50;97147.00;;;;5030205;28;20208;-66
2023/08/16 05:13:24;;;;;;;14.93;12.97;;;;;20.90;97158.00;;;;5024938;28;20229;-68
2023/08/16 05:16:13;;;;;;;14.90;13.40;;;;;20.90;97161.00;;;;5029860;28;20209;-68
2023/08/16 05:19:02;;;;;;;15.70;14.10;;;;;20.90;97159.00;;;;5030965;28;20216;-68
2023/08/16 05:21:51;;;;;;;17.30;15.40;;;;;21.20;97154.00;;;;5024682;28;20224;-68
2023/08/16 05:24:42;;;;;;;15.10;13.67;;;;;21.30;97162.00;;;;5022627;28;20225;-69
2023/08/16 05:27:31;;;;;;;16.87;15.17;;;;;21.40;97163.00;;;;5030158;28;20220;-68
2023/08/16 05:30:20;;;;;;;15.27;13.73;;;;;21.50;97161.00;;;;5028673;28;20210;-69
2023/08/16 05:33:09;;;;;;;19.10;14.33;;;;;21.50;97164.00;;;;5025750;28;20236;-68
2023/08/16 05:35:58;;;;;;;15.40;13.83;;;;;21.30;97173.00;;;;5027304;28;20198;-68
2023/08/16 05:38:47;;;;;;;14.43;13.03;;;;;21.40;97171.00;;;;5026393;28;20209;-66
2023/08/16 05:41:39;;;;;;;17.67;15.10;;;;;21.50;97177.00;;;;5028085;28;20204;-70
2023/08/16 05:44:28;;;;;;;15.70;13.50;;;;;21.70;97171.00;;;;5028482;28;20240;-69
2023/08/16 05:47:17;;;;;;;17.37;14.60;;;;;21.70;97173.00;;;;5028404;28;20212;-68
2023/08/16 05:50:07;;;;;;;14.67;13.27;;;;;21.80;97169.00;;;;5028415;28;20676;-69
2023/08/16 05:52:56;;;;;;;15.73;14.17;;;;;21.90;97176.00;;;;5027492;28;20631;-67
2023/08/16 05:55:45;;;;;;;15.75;13.90;;;;;21.90;97180.00;;;;5030352;28;20227;-68
2023/08/16 05:58:35;;;;;;;17.00;14.57;;;;;21.80;97181.00;;;;5023003;28;20209;-68
2023/08/16 06:01:25;;;;;;;19.40;15.70;;;;;22.40;97177.00;;;;5013784;28;20213;-68
2023/08/16 06:04:14;;;;;;;15.20;13.53;;;;;22.40;97182.00;;;;5014143;28;20278;-68
2023/08/16 06:07:03;;;;;;;19.20;15.90;;;;;22.60;97181.00;;;;5015079;28;20212;-68
2023/08/16 06:09:52;;;;;;;16.93;15.13;;;;;22.60;97175.00;;;;5017385;28;20944;-67
2023/08/16 06:12:41;;;;;;;15.77;13.33;;;;;22.50;97176.00;;;;5015958;28;20225;-69
2023/08/16 06:15:32;;;;;;;15.57;13.73;;;;;22.80;97178.00;;;;5018874;28;20206;-67
2023/08/16 06:18:21;;;;;;;15.20;13.60;;;;;22.80;97183.00;;;;5023333;28;20205;-68
2023/08/16 06:21:10;;;;;;;16.97;14.93;;;;;22.90;97182.00;;;;5012333;28;20205;-68
2023/08/16 06:24:01;;;;;;;19.33;13.60;;;;;22.80;97178.00;;;;5027014;28;20276;-68
2023/08/16 06:26:50;;;;;;;16.73;14.60;;;;;23.10;97176.00;;;;5026688;28;20673;-67
2023/08/16 06:29:39;;;;;;;14.13;12.73;;;;;22.90;97174.00;;;;5029572;28;20205;-69
2023/08/16 06:32:29;;;;;;;19.05;13.90;;;;;23.10;97172.00;;;;5026423;28;20205;-69
2023/08/16 06:35:18;;;;;;;21.03;14.20;;;;;23.40;97168.00;;;;5027766;28;20205;-68
2023/08/16 06:38:09;;;;;;;17.17;15.03;;;;;23.60;97164.00;;;;5022156;28;20212;-68
2023/08/16 06:40:58;;;;;;;16.40;14.47;;;;;23.80;97175.00;;;;5020440;28;20213;-68
2023/08/16 06:43:47;;;;;;;18.57;14.57;;;;;23.90;97174.00;;;;5015606;28;20237;-69
2023/08/16 06:46:36;;;;;;;21.20;13.77;;;;;23.70;97183.00;;;;5026603;28;20213;-67
2023/08/16 06:49:27;;;;;;;16.27;13.73;;;;;24.00;97187.00;;;;5026134;28;20630;-68
2023/08/16 06:52:16;;;;;;;18.43;15.30;;;;;24.30;97174.00;;;;5025719;28;20205;-67
2023/08/16 06:55:06;;;;;;;17.57;14.63;;;;;24.50;97172.00;;;;5026493;28;20220;-68
2023/08/16 06:57:55;;;;;;;16.50;13.77;;;;;24.50;97179.00;;;;5022997;28;20209;-68
2023/08/16 07:00:45;;;;;;;15.50;13.90;;;;;25.10;97183.00;;;;5027877;28;20210;-67
2023/08/16 07:03:34;;;;;;;19.63;13.97;;;;;25.40;97180.00;;;;5027020;28;20213;-67
2023/08/16 07:06:26;;;;;;;17.60;14.43;;;;;25.60;97173.00;;;;5026823;28;20209;-67
2023/08/16 07:09:15;;;;;;;15.60;13.20;;;;;25.90;97168.00;;;;5027769;28;20216;-67
2023/08/16 07:12:04;;;;;;;15.73;14.13;;;;;25.90;97171.00;;;;5026569;28;20208;-68
2023/08/16 07:14:53;;;;;;;19.90;15.10;;;;;26.00;97171.00;;;;5022875;28;20244;-67
2023/08/16 07:17:42;;;;;;;18.37;13.67;;;;;26.10;97169.00;;;;5027868;28;20220;-67
2023/08/16 07:20:31;;;;;;;14.73;13.13;;;;;26.60;97162.00;;;;5028901;28;20625;-67
2023/08/16 07:23:22;;;;;;;13.33;11.83;;;;;26.80;97170.00;;;;5027675;28;20696;-67
2023/08/16 07:26:11;;;;;;;18.80;14.00;;;;;27.10;97158.00;;;;5028201;28;20205;-67
2023/08/16 07:29:00;;;;;;;16.97;13.53;;;;;27.20;97165.00;;;;5026511;28;20578;-67
2023/08/16 07:31:51;;;;;;;14.00;12.60;;;;;27.00;97171.00;;;;5026336;28;20797;-67
2023/08/16 07:34:39;;;;;;;17.57;13.03;;;;;27.30;97173.00;;;;5025019;28;20281;-68
2023/08/16 07:37:31;;;;;;;15.37;13.07;;;;;27.60;97167.00;;;;5029909;28;20216;-68
2023/08/16 07:40:22;;;;;;;16.07;13.13;;;;;27.60;97166.00;;;;5033676;28;20225;-68
2023/08/16 07:43:11;;;;;;;13.97;11.30;;;;;27.60;97160.00;;;;5031163;28;20233;-69
2023/08/16 07:46:00;;;;;;;16.23;11.87;;;;;28.10;97168.00;;;;5027761;28;20202;-68
2023/08/16 07:48:49;;;;;;;15.90;12.60;;;;;28.00;97173.00;;;;5031581;28;20616;-67
2023/08/16 07:51:38;;;;;;;16.07;12.20;;;;;27.80;97168.00;;;;5030969;28;20709;-68
2023/08/16 07:54:27;;;;;;;12.80;11.20;;;;;28.00;97174.00;;;;5030402;28;20227;-68
2023/08/16 07:57:17;;;;;;;14.63;12.43;;;;;28.30;97163.00;;;;5029458;28;20206;-68
2023/08/16 08:00:11;;;;;;;14.07;11.33;;;;;28.60;97161.00;;;;5030804;28;20676;-68
2023/08/16 08:03:01;;;;;;;13.17;11.87;;;;;28.80;97172.00;;;;5029784;28;20246;-68
2023/08/16 08:05:50;;;;;;;12.80;11.00;;;;;29.30;97165.00;;;;5028647;28;20260;-69
2023/08/16 08:08:39;;;;;;;11.60;10.40;;;;;29.40;97179.00;;;;5031595;28;20204;-68
2023/08/16 08:11:28;;;;;;;15.23;11.07;;;;;29.40;97171.00;;;;5029716;28;20207;-68
2023/08/16 08:14:18;;;;;;;13.10;10.27;;;;;29.40;97171.00;;;;5029064;28;20235;-67
2023/08/16 08:17:07;;;;;;;14.57;11.03;;;;;29.50;97181.00;;;;5030764;28;20222;-67
2023/08/16 08:19:56;;;;;;;13.83;11.03;;;;;29.60;97175.00;;;;5027524;28;20206;-68
2023/08/16 08:22:45;;;;;;;11.43;10.03;;;;;29.80;97177.00;;;;5025681;28;20231;-68
2023/08/16 08:25:34;;;;;;;14.70;10.57;;;;;29.90;97174.00;;;;5030418;28;20221;-67
2023/08/16 08:28:23;;;;;;;12.53;9.87;;;;;30.20;97179.00;;;;5030749;28;20219;-67
2023/08/16 08:31:15;;;;;;;13.80;11.27;;;;;30.40;97176.00;;;;5030738;28;20215;-67
2023/08/16 08:34:04;;;;;;;12.83;11.13;;;;;30.50;97179.00;;;;5038108;22;20242;-71
2023/08/16 08:36:53;;;;;;;11.50;10.43;;;;;30.70;97181.00;;;;5010909;28;20699;-71
2023/08/16 08:39:42;;;;;;;13.30;10.47;;;;;30.90;97186.00;;;;4999832;28;20585;-70
2023/08/16 08:42:31;;;;;;;11.43;10.33;;;;;30.80;97178.00;;;;5000417;28;20197;-71
2023/08/16 08:45:20;;;;;;;13.30;9.33;;;;;30.90;97174.00;;;;4983138;28;20210;-70
2023/08/16 08:48:12;;;;;;;12.10;10.20;;;;;31.20;97178.00;;;;4982053;28;21198;-71
2023/08/16 08:51:01;;;;;;;11.30;10.20;;;;;31.30;97177.00;;;;4987693;28;20208;-70
2023/08/16 08:53:51;;;;;;;10.97;8.77;;;;;31.60;97182.00;;;;4992084;28;20231;-71
2023/08/16 08:56:40;;;;;;;10.80;9.50;;;;;31.80;97185.00;;;;4996312;28;20216;-70
2023/08/16 08:59:29;;;;;;;14.63;7.73;;;;;30.70;97172.00;;;;4995365;28;20596;-70
2023/08/16 09:02:19;;;;;;;9.53;8.47;;;;;30.90;97197.00;;;;4992299;28;20224;-71
2023/08/16 09:05:12;;;;;;;8.57;7.20;;;;;30.30;97198.00;;;;4990752;28;20888;-70
2023/08/16 09:08:01;;;;;;;8.97;7.20;;;;;29.90;97197.00;;;;4992243;28;20229;-70
2023/08/16 09:10:51;;;;;;;10.60;9.50;;;;;30.10;97187.00;;;;4991386;28;20211;-70
2023/08/16 09:13:40;;;;;;;9.53;8.00;;;;;30.10;97195.00;;;;4991665;28;20238;-69
2023/08/16 09:16:28;;;;;;;9.40;8.03;;;;;30.10;97187.00;;;;4991686;28;20204;-71
2023/08/16 09:19:18;;;;;;;9.47;8.57;;;;;30.10;97190.00;;;;4990905;28;20213;-70
2023/08/16 09:22:08;;;;;;;10.77;9.03;;;;;30.30;97190.00;;;;4992079;28;20205;-71
2023/08/16 09:24:58;;;;;;;9.00;8.20;;;;;30.40;97185.00;;;;4986654;28;20231;-70
2023/08/16 09:27:47;;;;;;;10.77;8.73;;;;;30.50;97184.00;;;;4989207;28;20207;-71
2023/08/16 09:30:36;;;;;;;9.23;8.30;;;;;30.70;97183.00;;;;4991876;28;20671;-70
2023/08/16 09:33:25;;;;;;;11.40;8.83;;;;;30.90;97177.00;;;;4989581;28;20245;-70
2023/08/16 09:36:17;;;;;;;10.00;8.60;;;;;30.70;97171.00;;;;4990392;28;20230;-71
2023/08/16 09:39:09;;;;;;;9.10;8.30;;;;;31.10;97156.00;;;;4991245;28;20221;-70
2023/08/16 09:41:59;;;;;;;10.00;9.00;;;;;31.70;97154.00;;;;4992256;28;20209;-71
2023/08/16 09:44:51;;;;;;;9.53;8.63;;;;;32.30;97158.00;;;;4987421;28;20755;-71
2023/08/16 09:47:45;;;;;;;10.63;7.82;;;;;31.80;97155.00;;;;4990567;28;20592;-70
2023/08/16 09:50:37;;;;;;;9.70;8.15;;;;;31.90;97174.00;;;;4991730;28;20214;-71
2023/08/16 09:53:47;;;;;;;8.20;7.35;;;;;30.80;97171.00;;;;4992014;28;20222;-71
2023/08/16 09:56:38;;;;;;;9.02;7.95;;;;;31.10;97171.00;;;;4993569;28;20203;-70
2023/08/16 09:59:27;;;;;;;9.88;7.28;;;;;31.30;97167.00;;;;4987047;28;20210;-70
2023/08/16 10:02:21;;;;;;;7.97;7.25;;;;;31.80;97148.00;;;;4992468;28;20206;-71
2023/08/16 10:05:30;;;;;;;9.63;7.72;;;;;30.90;97176.00;;;;4990462;28;20277;-70
2023/08/16 10:08:34;;;;;;;10.93;7.60;;;;;30.70;97167.00;;;;4992146;28;20237;-70
2023/08/16 10:11:24;;;;;;;7.97;6.57;;;;;30.50;97168.00;;;;4992487;28;20228;-70
2023/08/16 10:14:15;;;;;;;10.40;7.87;;;;;30.90;97174.00;;;;4991158;28;20237;-70
2023/08/16 10:17:06;;;;;;;9.60;8.03;;;;;30.80;97175.00;;;;4991278;28;20700;-70
2023/08/16 10:20:00;;;;;;;10.57;7.43;;;;;30.90;97172.00;;;;4988030;28;20200;-70
2023/08/16 10:22:53;;;;;;;9.53;8.03;;;;;31.10;97175.00;;;;4992548;28;20223;-70
2023/08/16 10:25:45;;;;;;;11.27;8.63;;;;;31.10;97170.00;;;;4992211;28;20202;-70
2023/08/16 10:28:35;;;;;;;10.73;7.70;;;;;31.30;97176.00;;;;4991330;28;21423;-70
2023/08/16 10:31:31;;;;;;;14.17;8.47;;;;;31.30;97170.00;;;;4991909;28;20209;-70
2023/08/16 10:34:21;;;;;;;9.90;8.93;;;;;31.40;97167.00;;;;4989382;28;20285;-70
2023/08/16 10:37:10;;;;;;;9.33;8.33;;;;;31.50;97167.00;;;;4992874;28;20214;-70
2023/08/16 10:39:59;;;;;;;10.63;9.30;;;;;31.90;97153.00;;;;4991428;28;20592;-70
2023/08/16 10:42:55;;;;;;;11.32;8.38;;;;;31.80;97148.00;;;;4992631;28;20198;-70
2023/08/16 10:45:48;;;;;;;9.43;8.43;;;;;31.30;97151.00;;;;4986696;28;20604;-70
2023/08/16 10:48:41;;;;;;;11.37;7.40;;;;;32.60;97129.00;;;;4991064;28;20221;-70
2023/08/16 10:51:31;;;;;;;12.52;7.63;;;;;32.40;97151.00;;;;4987513;28;20736;-70
2023/08/16 10:54:29;;;;;;;11.57;10.50;;;;;31.60;97144.00;;;;4991766;28;20698;-70
2023/08/16 10:57:25;;;;;;;9.73;8.57;;;;;31.10;97143.00;;;;4991499;28;20578;-70
2023/08/16 11:00:16;;;;;;;9.52;8.57;;;;;31.60;97146.00;;;;4986004;28;20211;-70
2023/08/16 11:03:06;;;;;;;11.90;8.82;;;;;32.00;97150.00;;;;4992252;28;20232;-70
2023/08/16 11:05:58;;;;;;;7.80;7.10;;;;;32.10;97150.00;;;;4993060;28;20199;-70
2023/08/16 11:08:47;;;;;;;12.07;8.35;;;;;31.50;97144.00;;;;4990868;28;20211;-70
2023/08/16 11:11:37;;;;;;;13.57;8.82;;;;;31.00;97134.00;;;;4990751;28;20205;-70
2023/08/16 11:14:26;;;;;;;10.88;8.25;;;;;31.30;97140.00;;;;4990263;28;20244;-69
2023/08/16 11:17:15;;;;;;;9.17;8.27;;;;;31.50;97139.00;;;;4995648;28;20220;-71
2023/08/16 11:20:07;;;;;;;9.03;8.13;;;;;32.30;97084.00;;;;4991783;28;20253;-69
2023/08/16 11:22:59;;;;;;;8.98;8.05;;;;;32.40;97112.00;;;;4995215;28;20683;-70
2023/08/16 11:25:48;;;;;;;12.27;8.40;;;;;31.90;97117.00;;;;4985950;28;20214;-69
2023/08/16 11:28:39;;;;;;;10.77;8.23;;;;;31.30;97105.00;;;;4991523;28;20223;-70
2023/08/16 11:31:28;;;;;;;9.10;8.05;;;;;31.60;97111.00;;;;4990750;28;20206;-70
2023/08/16 11:34:17;;;;;;;11.85;8.80;;;;;31.70;97052.00;;;;4992566;28;20236;-70
2023/08/16 11:37:06;;;;;;;9.40;8.40;;;;;32.40;97056.00;;;;4993591;28;20225;-70
2023/08/16 11:40:04;;;;;;;9.27;8.23;;;;;32.30;97089.00;;;;4993410;28;20206;-69
2023/08/16 11:42:53;;;;;;;8.40;7.57;;;;;31.90;97107.00;;;;4987945;28;20695;-71
2023/08/16 11:45:43;;;;;;;8.77;7.97;;;;;31.00;97096.00;;;;4987383;28;20202;-69
2023/08/16 11:48:34;;;;;;;8.88;7.28;;;;;31.30;97108.00;;;;4991700;28;20202;-70
2023/08/16 11:51:28;;;;;;;10.43;7.72;;;;;31.40;97098.00;;;;4995683;28;20143;-70
2023/08/16 11:54:22;;;;;;;8.23;7.43;;;;;31.20;97108.00;;;;4992714;28;20237;-71
2023/08/16 11:57:19;;;;;;;8.05;7.35;;;;;31.70;97110.00;;;;4995217;28;20233;-69
2023/08/16 12:00:09;;;;;;;8.38;7.57;;;;;32.30;97111.00;;;;4990351;28;20217;-71
2023/08/16 12:02:58;;;;;;;7.63;6.93;;;;;32.40;97114.00;;;;4990260;28;20203;-71
2023/08/16 12:05:49;;;;;;;8.90;7.85;;;;;32.60;97113.00;;;;4990661;28;20213;-70
2023/08/16 12:08:47;;;;;;;8.13;7.35;;;;;32.60;97120.00;;;;4987727;28;20205;-71
2023/08/16 12:11:37;;;;;;;8.27;7.57;;;;;31.80;97127.00;;;;4993759;28;20806;-70
2023/08/16 12:14:27;;;;;;;8.27;7.38;;;;;30.60;97137.00;;;;4988528;28;20220;-70
2023/08/16 12:17:17;;;;;;;9.02;8.20;;;;;29.50;97148.00;;;;4991384;28;20236;-70
2023/08/16 12:20:07;;;;;;;8.25;7.15;;;;;30.00;97135.00;;;;4993665;28;20205;-70
2023/08/16 12:22:58;;;;;;;8.10;7.40;;;;;29.90;97140.00;;;;4988975;28;20216;-71
2023/08/16 12:25:47;;;;;;;9.07;8.17;;;;;29.50;97149.00;;;;4998253;28;20676;-70
2023/08/16 12:28:36;;;;;;;9.27;8.03;;;;;29.10;97152.00;;;;4993714;28;20272;-70
2023/08/16 12:31:27;;;;;;;8.97;7.80;;;;;28.90;97167.00;;;;4994564;28;20212;-71
2023/08/16 12:34:16;;;;;;;11.37;9.07;;;;;27.90;97169.00;;;;4990519;28;20244;-70
2023/08/16 12:37:07;;;;;;;12.43;8.87;;;;;27.70;97185.00;;;;4990230;28;20725;-70
2023/08/16 12:39:56;;;;;;;10.20;9.00;;;;;27.80;97184.00;;;;4993179;28;20583;-69
2023/08/16 12:42:45;;;;;;;9.27;7.97;;;;;26.90;97180.00;;;;4988869;28;20626;-70
2023/08/16 12:45:34;;;;;;;9.40;8.60;;;;;26.20;97174.00;;;;4993359;28;20199;-69
2023/08/16 12:48:24;;;;;;;14.67;10.37;;;;;26.40;97183.00;;;;4995693;28;20224;-68
2023/08/16 12:51:13;;;;;;;13.83;9.90;;;;;25.60;97177.00;;;;4993948;28;20217;-68
2023/08/16 12:54:06;;;;;;;11.33;10.23;;;;;25.80;97171.00;;;;4993309;28;20606;-69
2023/08/16 12:56:55;;;;;;;11.97;10.37;;;;;25.80;97164.00;;;;4989209;28;20242;-69
2023/08/16 12:59:53;;;;;;;12.13;10.77;;;;;25.60;97171.00;;;;4988777;28;20296;-69
2023/08/16 13:02:42;;;;;;;12.67;11.20;;;;;25.80;97171.00;;;;4992911;28;20217;-69
2023/08/16 13:05:45;;;;;;;11.60;10.23;;;;;25.70;97166.00;;;;4992382;28;20202;-69
2023/08/16 13:08:37;;;;;;;12.40;11.20;;;;;26.00;97153.00;;;;4994656;28;20223;-69
2023/08/16 13:11:29;;;;;;;13.30;11.90;;;;;26.30;97154.00;;;;4991743;28;20218;-70
2023/08/16 13:14:21;;;;;;;17.23;12.90;;;;;26.60;97160.00;;;;4991198;28;20274;-69
2023/08/16 13:17:13;;;;;;;21.90;13.73;;;;;26.80;97163.00;;;;4992285;28;20230;-70
2023/08/16 13:20:12;;;;;;;12.97;11.47;;;;;26.80;97159.00;;;;4993225;28;20268;-70
2023/08/16 13:23:05;;;;;;;12.07;10.50;;;;;27.40;97181.00;;;;4989851;28;20595;-70
2023/08/16 13:25:57;;;;;;;13.93;11.63;;;;;27.30;97171.00;;;;4990519;28;20643;-70
2023/08/16 13:28:46;;;;;;;14.43;11.17;;;;;27.60;97163.00;;;;4992995;28;20621;-70
2023/08/16 13:31:37;;;;;;;11.13;10.00;;;;;27.90;97108.00;;;;4991149;28;20679;-70
2023/08/16 13:34:46;;;;;;;12.07;10.87;;;;;28.70;97077.00;;;;4991944;28;20323;-70
2023/08/16 13:37:38;;;;;;;11.07;9.97;;;;;28.90;97060.00;;;;4992635;28;20649;-70
2023/08/16 13:40:31;;;;;;;10.83;9.77;;;;;29.40;97064.00;;;;4989812;28;20599;-70
2023/08/16 13:43:22;;;;;;;9.77;8.90;;;;;30.20;97071.00;;;;4990422;28;20236;-70
2023/08/16 13:46:12;;;;;;;9.43;8.10;;;;;29.80;97084.00;;;;4990620;28;20202;-70
2023/08/16 13:49:01;;;;;;;9.87;9.07;;;;;28.00;97091.00;;;;4991152;28;20201;-72
2023/08/16 13:51:50;;;;;;;14.07;9.20;;;;;27.70;97088.00;;;;4987057;28;20205;-69
2023/08/16 13:54:39;;;;;;;9.60;8.70;;;;;28.30;97110.00;;;;4991428;28;20228;-70
2023/08/16 13:57:30;;;;;;;10.90;9.80;;;;;28.20;97111.00;;;;4994189;28;20223;-70
2023/08/16 14:00:20;;;;;;;9.53;8.60;;;;;28.60;97127.00;;;;4991907;28;20209;-69